Weather observations for the past three days for
Newberry, Luce County Airport
| Date | Time (edt) | Wind (mph) | Vis. (mi.) | Weather | Sky Cond. | Temperature (ºF) | Relative Humidity | Wind Chill (°F) | Heat Index (°F) | Pressure | Precipitation (in) | ||||||
|---|---|---|---|---|---|---|---|---|---|---|---|---|---|---|---|---|---|
| Air | Dwpt | 6 hour | altimeter (in) | sea level (mb) | 1 hr | 3 hr | 6 hr | ||||||||||
| Max. | Min. | ||||||||||||||||
| 07 | 03:15 | SW 8 | 10.00 | Overcast | OVC110 | 30.2 | 26.6 | 86% | 23 | 29.87 | 0.0 | ||||||
| 07 | 02:55 | SW 8 | 10.00 | Overcast | OVC110 | 30.2 | 26.6 | 86% | 23 | 29.87 | 0.0 | ||||||
| 07 | 02:35 | SW 7 | 10.00 | Overcast | FEW043 OVC110 | 30.2 | 26.6 | 86% | 24 | 29.88 | 0.0 | ||||||
| 07 | 02:15 | SW 7 | 10.00 | Overcast | BKN043 BKN050 OVC110 | 30.2 | 26.6 | 86% | 24 | 29.89 | 0.0 | ||||||
| 07 | 01:55 | SW 6 | 10.00 | Overcast | SCT041 OVC050 | 30.2 | 26.6 | 40.5 | 31.6 | 86% | 25 | 29.89 | 0.0 | ||||
| 07 | 01:35 | SW 6 | 10.00 | Overcast | OVC050 | 32 | 26.6 | 80% | 27 | 29.89 | 0.0 | ||||||
| 07 | 01:15 | W 2 | 10.00 | Overcast | OVC050 | 32 | 26.6 | 80% | 29.9 | 0.0 | |||||||
| 07 | 00:55 | NW 3 | 10.00 | Overcast | OVC060 | 33.8 | 26.6 | 75% | 29.9 | 0.0 | |||||||
| 07 | 00:35 | W 3 | 10.00 | Overcast | OVC060 | 33.8 | 26.6 | 75% | 29.9 | 0.0 | |||||||
| 07 | 00:15 | W 6 | 10.00 | Overcast | OVC070 | 33.8 | 26.6 | 75% | 29 | 29.9 | 0.0 | ||||||
| 06 | 23:55 | W 3 | 10.00 | Overcast | OVC060 | 33.8 | 26.6 | 75% | 29.91 | 0.0 | |||||||
| 06 | 23:35 | W 5 | 10.00 | Overcast | OVC060 | 35.6 | 26.6 | 70% | 32 | 29.91 | 0.0 | ||||||
| 06 | 23:15 | W 5 | 10.00 | Overcast | OVC060 | 35.6 | 26.6 | 70% | 32 | 29.91 | 0.0 | ||||||
| 06 | 22:55 | W 7 | 10.00 | A Few Clouds | FEW060 FEW075 | 35.6 | 24.8 | 65% | 31 | 29.91 | 0.0 | ||||||
| 06 | 22:35 | NW 8 | 10.00 | Overcast | SCT060 OVC075 | 37.4 | 24.8 | 60% | 32 | 29.91 | 0.0 | ||||||
| 06 | 22:15 | NW 3 | 10.00 | Overcast | OVC060 | 37.4 | 23 | 56% | 29.91 | 0.0 | |||||||
| 06 | 21:55 | NW 3 | 10.00 | Overcast | FEW039 FEW045 OVC060 | 37.4 | 23 | 56% | 29.91 | 0.0 | |||||||
| 06 | 21:35 | N 5 | 10.00 | Overcast | SCT039 BKN044 OVC070 | 37.4 | 23 | 56% | 34 | 29.9 | 0.0 | ||||||
| 06 | 21:15 | W 6 | 10.00 | Overcast | OVC070 | 37.4 | 24.8 | 60% | 33 | 29.9 | 0.0 | ||||||
| 06 | 20:55 | W 8 | 10.00 | Overcast | BKN060 OVC070 | 37.4 | 24.8 | 60% | 32 | 29.9 | 0.0 | ||||||
| 06 | 20:35 | W 7 | 10.00 | Overcast | SCT048 OVC060 | 39.2 | 24.8 | 56% | 35 | 29.89 | 0.0 | ||||||
| 06 | 20:15 | W 15 G 18 | 10.00 | Overcast | SCT044 OVC050 | 39.2 | 24.8 | 56% | 31 | 29.89 | 0.0 | ||||||
| 06 | 19:55 | W 12 | 10.00 | Overcast | OVC044 | 41 | 24.8 | 42.8 | 39.4 | 53% | 35 | 29.89 | 0.0 | ||||
| 06 | 19:35 | NW 7 | 10.00 | Overcast | OVC049 | 41 | 24.8 | 53% | 37 | 29.88 | 0.0 | ||||||
| 06 | 19:15 | W 8 | 10.00 | Overcast | OVC049 | 41 | 23 | 49% | 36 | 29.88 | 0.0 | ||||||
| 06 | 18:55 | W 10 | 10.00 | Overcast | OVC060 | 41 | 23 | 49% | 35 | 29.88 | 0.0 | ||||||
| 06 | 18:35 | NW 12 | 10.00 | Overcast | OVC050 | 42.8 | 23 | 46% | 37 | 29.88 | 0.0 | ||||||
| 06 | 18:15 | SW 12 | 10.00 | Overcast | BKN050 BKN065 OVC070 | 42.8 | 23 | 46% | 37 | 29.88 | 0.0 | ||||||
| 06 | 17:55 | W 10 | 10.00 | Overcast | SCT050 OVC065 | 42.8 | 21.2 | 42% | 38 | 29.87 | 0.0 | ||||||
| 06 | 17:35 | W 9 | 10.00 | Overcast | BKN055 OVC065 | 42.8 | 21.2 | 42% | 38 | 29.87 | 0.0 | ||||||
| 06 | 17:15 | W 10 G 16 | 10.00 | Overcast | SCT050 OVC065 | 42.8 | 21.2 | 42% | 38 | 29.87 | 0.0 | ||||||
| 06 | 16:55 | W 7 | 10.00 | Overcast | BKN050 OVC065 | 42.8 | 21.2 | 42% | 39 | 29.88 | 0.0 | ||||||
| 06 | 16:35 | W 8 G 18 | 10.00 | Overcast | OVC050 | 42.8 | 19.4 | 39% | 39 | 29.87 | 0.0 | ||||||
| 06 | 16:15 | W 9 | 10.00 | Overcast | OVC050 | 42.8 | 19.4 | 39% | 38 | 29.88 | 0.0 | ||||||
| 06 | 15:55 | NW 9 | 10.00 | Overcast | OVC050 | 41 | 19.4 | 42% | 36 | 29.88 | 0.0 | ||||||
| 06 | 15:35 | W 6 | 10.00 | Overcast | OVC050 | 41 | 21.2 | 45% | 38 | 29.88 | 0.0 | ||||||
| 06 | 15:15 | W 8 | 10.00 | Overcast | OVC050 | 41 | 23 | 49% | 36 | 29.88 | 0.0 | ||||||
| 06 | 14:55 | W 9 | 10.00 | Overcast | OVC048 | 39.2 | 21.2 | 48% | 34 | 29.88 | 0.0 | ||||||
| 06 | 14:35 | W 15 | 10.00 | Overcast | OVC046 | 39.2 | 23 | 52% | 31 | 29.88 | 0.0 | ||||||
| 06 | 14:15 | W 14 G 23 | 10.00 | Overcast | OVC049 | 41 | 21.2 | 45% | 34 | 29.88 | 0.0 | ||||||
| 06 | 13:55 | W 14 G 17 | 10.00 | Overcast | OVC049 | 41 | 21.2 | 40.8 | 33.6 | 45% | 34 | 29.88 | 0.0 | ||||
| 06 | 13:35 | NW 9 G 17 | 10.00 | Overcast | OVC049 | 41 | 21.2 | 45% | 36 | 29.88 | 0.0 | ||||||
| 06 | 13:15 | NW 8 G 16 | 10.00 | Overcast | OVC047 | 41 | 21.2 | 45% | 36 | 29.89 | 0.0 | ||||||
| 06 | 12:55 | W 12 | 10.00 | Overcast | OVC045 | 39.2 | 21.2 | 48% | 33 | 29.89 | 0.0 | ||||||
| 06 | 12:35 | W 14 G 18 | 10.00 | Overcast | OVC045 | 39.2 | 21.2 | 48% | 32 | 29.89 | 0.0 | ||||||
| 06 | 12:15 | W 14 G 20 | 10.00 | Overcast | OVC043 | 39.2 | 23 | 52% | 32 | 29.89 | 0.0 | ||||||
| 06 | 11:55 | W 12 | 10.00 | Overcast | OVC039 | 39.2 | 23 | 52% | 33 | 29.88 | 0.0 | ||||||
| 06 | 11:35 | W 13 G 17 | 10.00 | Overcast | OVC039 | 37.4 | 23 | 56% | 30 | 29.88 | 0.0 | ||||||
| 06 | 11:15 | W 13 G 17 | 10.00 | Overcast | OVC043 | 37.4 | 23 | 56% | 30 | 29.87 | 0.0 | ||||||
| 06 | 10:55 | W 16 G 20 | 10.00 | Overcast | OVC045 | 39.2 | 23 | 52% | 31 | 29.87 | 0.0 | ||||||
| 06 | 10:35 | W 14 | 10.00 | Overcast | OVC047 | 37.4 | 24.8 | 60% | 30 | 29.87 | 0.0 | ||||||
| 06 | 10:15 | NW 12 G 18 | 10.00 | Overcast | OVC047 | 37.4 | 24.8 | 60% | 30 | 29.87 | 0.0 | ||||||
| 06 | 09:55 | W 13 G 17 | 10.00 | Overcast | OVC047 | 37.4 | 26.6 | 65% | 30 | 29.86 | 0.0 | ||||||
| 06 | 09:35 | W 8 | 10.00 | Overcast | OVC047 | 37.4 | 24.8 | 60% | 32 | 29.86 | 0.0 | ||||||
| 06 | 09:15 | W 9 | 10.00 | Overcast | OVC047 | 35.6 | 26.6 | 70% | 29 | 29.86 | 0.0 | ||||||
| 06 | 08:55 | W 8 | 10.00 | Overcast | OVC049 | 35.6 | 24.8 | 65% | 30 | 29.86 | 0.0 | ||||||
| 06 | 08:35 | W 8 | 10.00 | Overcast | OVC049 | 35.6 | 24.8 | 65% | 30 | 29.85 | 0.0 | ||||||
| 06 | 08:15 | W 8 | 10.00 | Overcast | OVC049 | 33.8 | 24.8 | 70% | 28 | 29.85 | 0.0 | ||||||
| 06 | 07:55 | W 7 | 10.00 | Overcast | OVC049 | 33.8 | 26.6 | 33.6 | 30.2 | 75% | 28 | 29.84 | 0.0 | ||||
| 06 | 07:35 | SW 6 | 10.00 | Overcast | OVC049 | 33.8 | 26.6 | 75% | 29 | 29.83 | 0.0 | ||||||
| 06 | 07:15 | SW 7 | 10.00 | Overcast | OVC049 | 33.8 | 26.6 | 75% | 28 | 29.83 | 0.0 | ||||||
| 06 | 06:55 | SW 7 | 10.00 | Overcast | OVC049 | 32 | 26.6 | 80% | 26 | 29.82 | 0.0 | ||||||
| 06 | 06:35 | SW 7 | 10.00 | Overcast | OVC049 | 32 | 24.8 | 75% | 26 | 29.82 | 0.0 | ||||||
| 06 | 06:15 | SW 7 | 10.00 | Overcast | OVC049 | 32 | 24.8 | 75% | 26 | 29.82 | 0.0 | ||||||
| 06 | 05:55 | SW 7 | 10.00 | Overcast | OVC049 | 32 | 26.6 | 80% | 26 | 29.82 | 0.0 | ||||||
| 06 | 05:35 | SW 6 | 10.00 | Overcast | OVC049 | 32 | 26.6 | 80% | 27 | 29.82 | 0.0 | ||||||
| 06 | 05:15 | SW 6 | 10.00 | Overcast | OVC049 | 32 | 26.6 | 80% | 27 | 29.82 | 0.0 | ||||||
| 06 | 04:55 | SW 6 | 10.00 | Overcast | OVC049 | 32 | 26.6 | 80% | 27 | 29.82 | 0.0 | ||||||
| 06 | 04:35 | SW 6 | 10.00 | Overcast | OVC049 | 32 | 26.6 | 80% | 27 | 29.82 | 0.0 | ||||||
| 06 | 04:15 | SW 8 | 10.00 | Overcast | OVC049 | 32 | 26.6 | 80% | 25 | 29.82 | 0.0 | ||||||
| 06 | 03:55 | SW 8 | 10.00 | Overcast | OVC047 | 32 | 26.6 | 80% | 25 | 29.82 | 0.0 | ||||||
| 06 | 03:35 | SW 8 | 10.00 | Overcast | OVC047 | 32 | 26.6 | 80% | 25 | 29.82 | 0.0 | ||||||
| 06 | 03:15 | SW 8 | 10.00 | Overcast | OVC047 | 32 | 26.6 | 80% | 25 | 29.82 | 0.0 | ||||||
| 06 | 02:55 | SW 8 | 10.00 | Overcast | OVC047 | 32 | 24.8 | 75% | 25 | 29.82 | 0.0 | ||||||
| 06 | 02:35 | SW 8 | 10.00 | Overcast | OVC047 | 32 | 26.6 | 80% | 25 | 29.82 | 0.0 | ||||||
| 06 | 02:15 | SW 7 | 10.00 | Overcast | OVC047 | 30.2 | 24.8 | 80% | 24 | 29.82 | 0.0 | ||||||
| 06 | 01:55 | SW 6 | 10.00 | Overcast | OVC047 | 30.2 | 24.8 | 37.9 | 27.7 | 80% | 25 | 29.82 | 0.0 | ||||
| 06 | 01:35 | SW 5 | 10.00 | Overcast | OVC047 | 30.2 | 24.8 | 80% | 26 | 29.82 | 0.0 | ||||||
| 06 | 01:15 | SW 6 | 10.00 | Mostly Cloudy | BKN047 | 28.4 | 24.8 | 86% | 23 | 29.82 | 0.0 | ||||||
| 06 | 00:55 | SW 5 | 10.00 | Fair | CLR | 28.4 | 24.8 | 86% | 24 | 29.82 | 0.0 | ||||||
| 06 | 00:35 | SW 5 | 10.00 | Fair | CLR | 30.2 | 24.8 | 80% | 26 | 29.82 | 0.0 | ||||||
| 06 | 00:15 | SW 5 | 10.00 | Fair | CLR | 30.2 | 24.8 | 80% | 26 | 29.81 | 0.0 | ||||||
| 05 | 23:55 | W 6 | 10.00 | Fair | CLR | 30.2 | 24.8 | 80% | 25 | 29.82 | 0.0 | ||||||
| 05 | 23:35 | W 6 | 10.00 | Fair | CLR | 30.2 | 24.8 | 80% | 25 | 29.81 | 0.0 | ||||||
| 05 | 23:15 | W 5 | 10.00 | Fair | CLR | 32 | 24.8 | 75% | 28 | 29.81 | 0.0 | ||||||
| 05 | 22:55 | W 5 | 10.00 | Fair | CLR | 32 | 24.8 | 75% | 28 | 29.81 | 0.0 | ||||||
| 05 | 22:35 | NW 5 | 10.00 | Fair | CLR | 32 | 23 | 69% | 28 | 29.82 | 0.0 | ||||||
| 05 | 22:15 | NW 5 | 10.00 | Fair | CLR | 33.8 | 23 | 65% | 30 | 29.81 | 0.0 | ||||||
| 05 | 21:55 | NW 5 | 10.00 | Fair | CLR | 33.8 | 23 | 65% | 30 | 29.81 | 0.0 | ||||||
| 05 | 21:35 | NW 5 | 10.00 | Fair | CLR | 33.8 | 23 | 65% | 30 | 29.81 | 0.0 | ||||||
| 05 | 21:15 | NW 7 | 10.00 | Fair | CLR | 33.8 | 23 | 65% | 28 | 29.8 | 0.0 | ||||||
| 05 | 20:55 | NW 7 | 10.00 | A Few Clouds | FEW032 | 35.6 | 24.8 | 65% | 31 | 29.8 | 0.0 | ||||||
| 05 | 20:35 | NW 5 | 10.00 | Partly Cloudy | SCT034 SCT075 | 35.6 | 24.8 | 65% | 32 | 29.8 | 0.0 | ||||||
| 05 | 20:15 | NW 8 | 10.00 | Partly Cloudy | SCT034 SCT075 | 37.4 | 24.8 | 60% | 32 | 29.79 | 0.0 | ||||||
| 05 | 19:55 | NW 8 | 10.00 | Mostly Cloudy | SCT034 SCT040 BKN075 | 37.4 | 24.8 | 45.9 | 37.8 | 60% | 32 | 29.79 | 0.0 | ||||
| 05 | 19:35 | N 13 G 18 | 10.00 | Overcast | SCT037 BKN050 OVC075 | 39.2 | 24.8 | 56% | 32 | 29.78 | 0.0 | ||||||
| 05 | 19:15 | NW 14 G 20 | 10.00 | Overcast | BKN050 OVC075 | 39.2 | 24.8 | 56% | 32 | 29.78 | 0.0 | ||||||
| 05 | 18:55 | NW 10 G 17 | 10.00 | Overcast | FEW046 OVC050 | 39.2 | 24.8 | 56% | 33 | 29.77 | 0.0 | ||||||
| 05 | 18:35 | NW 9 | 10.00 | Overcast | SCT031 SCT046 OVC055 | 39.2 | 26.6 | 61% | 34 | 29.77 | 0.0 | ||||||
| 05 | 18:15 | NW 13 G 17 | 10.00 | Overcast | SCT031 BKN035 OVC055 | 39.2 | 26.6 | 61% | 32 | 29.76 | 0.0 | ||||||
| 05 | 17:55 | NW 8 G 18 | 10.00 | Overcast | SCT032 OVC055 | 39.2 | 28.4 | 65% | 34 | 29.76 | 0.0 | ||||||
| 05 | 17:35 | NW 10 G 17 | 10.00 | Overcast | BKN055 OVC065 | 41 | 28.4 | 61% | 35 | 29.76 | 0.0 | ||||||
| 05 | 17:15 | NW 13 G 17 | 10.00 | Overcast | FEW046 BKN050 OVC065 | 42.8 | 28.4 | 57% | 37 | 29.75 | 0.0 | ||||||
| 05 | 16:55 | NW 13 G 20 | 10.00 | Overcast | FEW040 OVC050 | 41 | 28.4 | 61% | 34 | 29.74 | 0.0 | ||||||
| 05 | 16:35 | NW 14 G 18 | 10.00 | Overcast | BKN041 OVC050 | 42.8 | 28.4 | 57% | 36 | 29.73 | 0.0 | ||||||
| 05 | 16:15 | NW 9 G 20 | 10.00 | Overcast | OVC042 | 42.8 | 28.4 | 57% | 38 | 29.72 | 0.0 | ||||||
| 05 | 15:55 | NW 9 | 10.00 | Overcast | BKN040 OVC060 | 44.6 | 28.4 | 53% | 40 | 29.71 | 0.0 | ||||||
| 05 | 15:35 | W 12 G 18 | 10.00 | Overcast | BKN038 OVC060 | 44.6 | 28.4 | 53% | 39 | 29.71 | 0.0 | ||||||
| 05 | 15:15 | NW 12 G 17 | 10.00 | Overcast | OVC038 | 44.6 | 28.4 | 53% | 39 | 29.7 | 0.0 | ||||||
| 05 | 14:55 | NW 9 | 10.00 | Overcast | BKN038 BKN049 OVC070 | 44.6 | 30.2 | 57% | 40 | 29.69 | 0.0 | ||||||
| 05 | 14:35 | NW 12 | 10.00 | Overcast | SCT041 BKN049 OVC070 | 44.6 | 32 | 61% | 39 | 29.69 | 0.0 | ||||||
| 05 | 14:15 | W 15 | 10.00 | Light Rain | BKN036 OVC044 | 42.8 | 32 | 66% | 36 | 29.69 | 0.0 | ||||||
| 05 | 13:55 | W 18 | 10.00 | Light Rain | FEW030 FEW038 OVC050 | 44.6 | 30.2 | 48.6 | 35.6 | 57% | 37 | 29.67 | 0.0 | ||||
| 05 | 13:35 | NW 10 | 10.00 | Overcast | BKN049 OVC055 | 46.4 | 28.4 | 50% | 42 | 29.66 | 0.0 | ||||||
| 05 | 13:15 | W 15 G 23 | 10.00 | Mostly Cloudy | BKN055 BKN065 BKN075 | 48.2 | 28.4 | 46% | 43 | 29.65 | 0.0 | ||||||
| 05 | 12:55 | W 16 G 22 | 10.00 | Mostly Cloudy | BKN050 | 46.4 | 30.2 | 53% | 40 | 29.66 | 0.0 | ||||||
| 05 | 12:35 | W 15 | 10.00 | Overcast | SCT041 OVC050 | 46.4 | 30.2 | 53% | 41 | 29.66 | 0.0 | ||||||
| 05 | 12:15 | W 18 | 10.00 | Overcast | BKN040 OVC048 | 46.4 | 30.2 | 53% | 40 | 29.66 | 0.0 | ||||||
| 05 | 11:55 | W 14 G 20 | 10.00 | Mostly Cloudy | BKN036 BKN042 BKN049 | 46.4 | 30.2 | 53% | 41 | 29.66 | 0.0 | ||||||
| 05 | 11:35 | W 10 G 20 | 10.00 | Mostly Cloudy | SCT042 SCT055 BKN100 | 44.6 | 30.2 | 57% | 40 | 29.66 | 0.0 | ||||||
| 05 | 11:15 | W 15 | 10.00 | Overcast | SCT042 BKN047 OVC060 | 42.8 | 30.2 | 61% | 36 | 29.66 | 0.0 | ||||||
| 05 | 10:55 | W 15 G 24 | 10.00 | Overcast | OVC042 | 42.8 | 28.4 | 57% | 36 | 29.65 | 0.0 | ||||||
| 05 | 10:35 | W 15 | 10.00 | Overcast | OVC039 | 42.8 | 28.4 | 57% | 36 | 29.64 | 0.0 | ||||||
| 05 | 10:15 | W 14 G 22 | 10.00 | Overcast | BKN039 BKN050 OVC060 | 42.8 | 28.4 | 57% | 36 | 29.64 | 0.0 | ||||||
| 05 | 09:55 | W 15 G 23 | 10.00 | Partly Cloudy | FEW035 FEW043 SCT060 | 42.8 | 28.4 | 57% | 36 | 29.63 | 0.0 | ||||||
| 05 | 09:35 | W 18 G 25 | 10.00 | A Few Clouds | FEW032 | 41 | 28.4 | 61% | 33 | 29.62 | 0.0 | ||||||
| 05 | 09:15 | W 15 G 22 | 10.00 | A Few Clouds | FEW030 | 39.2 | 26.6 | 61% | 31 | 29.62 | 0.0 | ||||||
| 05 | 08:55 | W 14 G 21 | 10.00 | Fair | CLR | 39.2 | 28.4 | 65% | 32 | 29.62 | 0.0 | ||||||
| 05 | 08:35 | W 14 G 18 | 10.00 | Fair | CLR | 37.4 | 28.4 | 70% | 30 | 29.62 | 0.0 | ||||||
| 05 | 08:15 | W 12 | 10.00 | Fair | CLR | 37.4 | 26.6 | 65% | 30 | 29.61 | 0.0 | ||||||
| 05 | 07:55 | W 12 | 10.00 | Fair | CLR | 35.6 | 26.6 | 42.8 | 33.4 | 70% | 28 | 29.61 | 0.0 | ||||
| 05 | 07:35 | W 9 | 10.00 | Fair | CLR | 35.6 | 26.6 | 70% | 29 | 29.61 | 0.0 | ||||||
| 05 | 07:15 | W 8 | 10.00 | Fair | CLR | 33.8 | 26.6 | 75% | 28 | 29.6 | 0.0 | ||||||
| 05 | 06:55 | W 7 | 10.00 | Fair | CLR | 33.8 | 24.8 | 70% | 28 | 29.59 | 0.0 | ||||||
| 05 | 06:35 | W 7 | 10.00 | Fair | CLR | 33.8 | 24.8 | 70% | 28 | 29.58 | 0.0 | ||||||
| 05 | 06:15 | W 7 | 10.00 | Fair | CLR | 33.8 | 24.8 | 70% | 28 | 29.57 | 0.0 | ||||||
| 05 | 05:55 | W 12 | 10.00 | Partly Cloudy | SCT036 | 35.6 | 24.8 | 65% | 28 | 29.56 | 0.0 | ||||||
| 05 | 05:35 | W 14 G 17 | 10.00 | A Few Clouds | FEW031 FEW038 | 35.6 | 24.8 | 65% | 27 | 29.56 | 0.0 | ||||||
| 05 | 05:15 | NW 6 | 10.00 | Fair | CLR | 35.6 | 28.4 | 75% | 31 | 29.55 | 0.0 | ||||||
| 05 | 04:55 | NW 7 | 10.00 | Fair | CLR | 37.4 | 28.4 | 70% | 33 | 29.54 | 0.0 | ||||||
| 05 | 04:35 | NW 5 | 10.00 | A Few Clouds | FEW060 | 37.4 | 28.4 | 70% | 34 | 29.54 | 0.0 | ||||||
| 05 | 04:15 | NW 6 | 10.00 | A Few Clouds | FEW060 | 37.4 | 28.4 | 70% | 33 | 29.53 | 0.0 | ||||||
| 05 | 03:55 | W 10 | 10.00 | A Few Clouds | FEW045 | 37.4 | 30.2 | 75% | 31 | 29.54 | 0.0 | ||||||
| 05 | 03:35 | W 9 | 10.00 | Mostly Cloudy | BKN043 | 39.2 | 30.2 | 70% | 34 | 29.53 | 0.0 | ||||||
| 05 | 03:15 | W 12 | 10.00 | Partly Cloudy | FEW043 SCT075 | 39.2 | 30.2 | 70% | 33 | 29.53 | 0.0 | ||||||
| 05 | 02:55 | W 13 | 10.00 | A Few Clouds | FEW075 | 39.2 | 32 | 75% | 32 | 29.53 | 0.0 | ||||||
| 05 | 02:35 | W 14 G 17 | 10.00 | Fair | CLR | 41 | 30.2 | 66% | 34 | 29.52 | 0.0 | ||||||
| 05 | 02:15 | W 14 G 23 | 10.00 | Mostly Cloudy | SCT075 BKN090 | 41 | 30.2 | 66% | 34 | 29.53 | 0.0 | ||||||
| 05 | 01:55 | W 13 G 24 | 10.00 | Overcast | OVC075 | 42.8 | 30.2 | 49.3 | 42.8 | 61% | 37 | 29.52 | 0.0 | ||||
| 05 | 01:35 | NW 17 G 26 | 10.00 | Overcast | OVC075 | 42.8 | 30.2 | 61% | 35 | 29.52 | 0.0 | ||||||
| 05 | 01:15 | W 12 G 22 | 10.00 | Overcast | OVC075 | 44.6 | 30.2 | 57% | 39 | 29.5 | 0.0 | ||||||
| 05 | 00:55 | NW 16 G 23 | 10.00 | Overcast | OVC075 | 44.6 | 30.2 | 57% | 38 | 29.5 | 0.0 | ||||||
| 05 | 00:35 | NW 14 G 20 | 10.00 | Overcast | OVC065 | 44.6 | 30.2 | 57% | 39 | 29.49 | 0.0 | ||||||
| 05 | 00:15 | W 12 G 20 | 10.00 | Overcast | OVC065 | 44.6 | 30.2 | 57% | 39 | 29.48 | 0.0 | ||||||
| 04 | 23:55 | W 16 G 24 | 10.00 | Overcast | OVC065 | 44.6 | 30.2 | 57% | 38 | 29.48 | 0.0 | ||||||
| 04 | 23:35 | W 14 G 28 | 10.00 | Overcast | OVC065 | 46.4 | 30.2 | 53% | 41 | 29.47 | 0.0 | ||||||
| 04 | 23:15 | NW 14 G 25 | 10.00 | Overcast | OVC065 | 46.4 | 30.2 | 53% | 41 | 29.47 | 0.0 | ||||||
| 04 | 22:55 | NW 23 G 28 | 10.00 | Overcast and Breezy | OVC065 | 46.4 | 30.2 | 53% | 39 | 29.46 | 0.0 | ||||||
| 04 | 22:35 | NW 15 G 24 | 10.00 | Overcast | OVC065 | 46.4 | 30.2 | 53% | 41 | 29.46 | 0.0 | ||||||
| 04 | 22:15 | NW 10 | 10.00 | Overcast | OVC075 | 46.4 | 30.2 | 53% | 42 | 29.45 | 0.0 | ||||||
| 04 | 21:55 | NW 14 | 10.00 | Overcast | OVC075 | 46.4 | 32 | 57% | 41 | 29.45 | 0.0 | ||||||
| 04 | 21:35 | NW 14 G 17 | 10.00 | Overcast | FEW060 OVC075 | 46.4 | 32 | 57% | 41 | 29.44 | 0.0 | ||||||
| 04 | 21:15 | NW 10 G 16 | 10.00 | Overcast | BKN060 OVC075 | 46.4 | 32 | 57% | 42 | 29.43 | 0.0 | ||||||
| 04 | 20:55 | NW 7 | 10.00 | Mostly Cloudy | BKN060 BKN100 | 46.4 | 32 | 57% | 43 | 29.43 | 0.0 | ||||||
| 04 | 20:35 | NW 14 G 20 | 10.00 | Partly Cloudy | SCT110 | 48.2 | 32 | 54% | 43 | 29.43 | 0.0 | ||||||
| 04 | 20:15 | NW 12 G 18 | 10.00 | Overcast | BKN085 OVC110 | 50 | 33.8 | 54% | 46 | 29.42 | 0.0 | ||||||
| 04 | 19:55 | NW 7 G 18 | 10.00 | Overcast | OVC070 | 48.2 | 33.8 | 58.3 | 47.7 | 58% | 46 | 29.4 | 0.0 | 0.01 | |||
| 04 | 19:35 | NW 8 | 10.00 | Light Rain | OVC070 | 48.2 | 37.4 | 66% | 45 | 29.4 | 0.0 | ||||||
| 04 | 19:15 | NW 8 | 10.00 | Light Rain | OVC070 | 48.2 | 39.2 | 71% | 45 | 29.39 | 0.0 | ||||||
| 04 | 18:55 | NW 7 G 17 | 10.00 | Light Rain | OVC070 | 48.2 | 39.2 | 71% | 46 | 29.39 | 0.0 | ||||||
| 04 | 18:35 | NW 14 G 18 | 10.00 | Light Rain | OVC070 | 50 | 39.2 | 67% | 45 | 29.38 | 0.0 | ||||||
| 04 | 18:15 | N 12 G 21 | 10.00 | Light Rain | OVC075 | 51.8 | 37.4 | 58% | 29.38 | 0.0 | |||||||
| 04 | 17:55 | NW 12 G 22 | 10.00 | Overcast | OVC080 | 53.6 | 39.2 | 58% | 29.37 | 0.0 | |||||||
| 04 | 17:35 | NW 13 G 16 | 10.00 | Overcast | FEW060 OVC080 | 53.6 | 41 | 63% | 29.36 | 0.0 | |||||||
| 04 | 17:15 | N 10 | 10.00 | Overcast | FEW065 OVC075 | 55.4 | 41 | 59% | 29.33 | 0.0 | |||||||
| 04 | 16:55 | N 8 | 10.00 | Light Rain | FEW060 OVC075 | 57.2 | 42.8 | 59% | 29.33 | 0.0 | |||||||
| 04 | 16:35 | N 9 | 10.00 | Overcast | SCT060 OVC075 | 55.4 | 42.8 | 63% | 29.33 | 0.0 | |||||||
| 04 | 16:15 | N 9 | 10.00 | Overcast | OVC085 | 57.2 | 41 | 55% | 29.33 | 0.0 | |||||||
| 04 | 15:55 | N 10 | 10.00 | Mostly Cloudy | BKN095 BKN110 | 57.2 | 41 | 55% | 29.33 | 0.0 | |||||||
| 04 | 15:35 | N 9 G 18 | 10.00 | Fair | CLR | 57.2 | 41 | 55% | 29.32 | 0.0 | |||||||
| 04 | 15:15 | N 7 | 10.00 | Light Rain | FEW041 BKN070 BKN120 | 53.6 | 41 | 63% | 29.33 | 0.0 | |||||||
| 04 | 14:55 | NE 3 | 10.00 | Overcast | SCT065 OVC080 | 53.6 | 41 | 63% | 29.32 | 0.0 | |||||||
| 04 | 14:35 | NE 2 | 10.00 | Overcast | OVC080 | 53.6 | 39.2 | 58% | 29.32 | 0.0 | |||||||
| 04 | 14:15 | W 9 | 10.00 | Overcast | OVC110 | 53.6 | 41 | 63% | 29.32 | 0.0 | |||||||
| 04 | 13:55 | W 14 G 20 | 10.00 | Light Rain | FEW060 BKN085 OVC110 | 53.6 | 39.2 | 57.2 | 41.4 | 58% | 29.33 | 0.0 | |||||
| 04 | 13:35 | W 15 | 10.00 | Overcast | OVC085 | 55.4 | 39.2 | 55% | 29.33 | 0.0 | |||||||
| 04 | 13:15 | SW 15 G 23 | 10.00 | Light Rain | SCT065 OVC085 | 53.6 | 39.2 | 58% | 29.3 | 0.0 | |||||||
| 04 | 12:55 | SW 14 G 28 | 10.00 | Light Rain | BKN065 OVC085 | 53.6 | 39.2 | 58% | 29.3 | 0.0 | |||||||
| 04 | 12:35 | SW 13 | 10.00 | Overcast | FEW075 OVC095 | 55.4 | 37.4 | 51% | 29.29 | 0.0 | |||||||
| 04 | 12:15 | S 15 G 22 | 10.00 | Overcast | OVC095 | 55.4 | 37.4 | 51% | 29.29 | 0.0 | |||||||
| 04 | 11:55 | S 20 G 28 | 10.00 | Mostly Cloudy | BKN100 BKN120 | 57.2 | 37.4 | 48% | 29.29 | 0.0 | |||||||
| 04 | 11:35 | S 20 G 32 | 10.00 | Fair | CLR | 57.2 | 37.4 | 48% | 29.3 | 0.0 | |||||||
| 04 | 11:15 | S 18 G 26 | 10.00 | Fair | CLR | 55.4 | 41 | 59% | 29.31 | 0.0 | |||||||
| 04 | 10:55 | S 20 G 29 | 10.00 | Fair | CLR | 53.6 | 41 | 63% | 29.32 | 0.0 | |||||||
| 04 | 10:35 | S 18 G 29 | 10.00 | Fair | CLR | 51.8 | 41 | 67% | 29.34 | 0.0 | |||||||
| 04 | 10:15 | S 18 G 25 | 10.00 | Fair | CLR | 50 | 41 | 71% | 44 | 29.35 | 0.0 | ||||||
| 04 | 09:55 | S 16 G 24 | 10.00 | Fair | CLR | 48.2 | 41 | 76% | 43 | 29.36 | 0.0 | ||||||
| 04 | 09:35 | S 16 | 10.00 | Fair | CLR | 46.4 | 41 | 82% | 40 | 29.38 | 0.0 | ||||||
| 04 | 09:15 | S 16 G 21 | 10.00 | Fair | CLR | 46.4 | 41 | 82% | 40 | 29.38 | 0.0 | ||||||
| 04 | 08:55 | S 14 | 10.00 | Fair | CLR | 46.4 | 41 | 82% | 41 | 29.39 | 0.0 | ||||||
| 04 | 08:35 | S 14 G 21 | 10.00 | A Few Clouds | FEW120 | 44.6 | 41 | 87% | 39 | 29.41 | 0.0 | ||||||
| 04 | 08:15 | S 13 | 10.00 | Fair | CLR | 44.6 | 41 | 87% | 39 | 29.42 | 0.0 | ||||||
| 04 | 07:55 | S 12 | 10.00 | Fair | CLR | 41 | 39.2 | 41.4 | 37 | 93% | 35 | 29.42 | 0.0 | ||||
| 04 | 07:35 | S 12 | 10.00 | Fair | CLR | 41 | 39.2 | 93% | 35 | 29.43 | 0.0 | ||||||
| 04 | 07:15 | S 12 | 10.00 | Fair | CLR | 41 | 39.2 | 93% | 35 | 29.44 | 0.0 | ||||||
| 04 | 06:55 | S 12 | 10.00 | Fair | CLR | 41 | 39.2 | 93% | 35 | 29.44 | 0.0 | ||||||
| 04 | 06:35 | S 14 | 10.00 | Fair | CLR | 41 | 39.2 | 93% | 34 | 29.45 | 0.0 | ||||||
| 04 | 06:15 | S 14 | 10.00 | Fair | CLR | 39.2 | 37.4 | 93% | 32 | 29.46 | 0.0 | ||||||
| 04 | 05:55 | S 10 | 10.00 | Fair | CLR | 37.4 | 37.4 | 100% | 31 | 29.46 | 0.0 | ||||||
| 04 | 05:35 | S 10 | 10.00 | Fair | CLR | 37.4 | 37.4 | 100% | 31 | 29.47 | 0.0 | ||||||
| 04 | 05:15 | S 13 | 10.00 | Fair | CLR | 37.4 | 37.4 | 100% | 30 | 29.48 | 0.0 | ||||||
| 04 | 04:55 | S 12 | 10.00 | Fair | CLR | 37.4 | 35.6 | 93% | 30 | 29.49 | 0.0 | ||||||
| 04 | 04:35 | S 10 | 10.00 | Fair | CLR | 37.4 | 37.4 | 100% | 31 | 29.48 | 0.0 | ||||||
| 04 | 04:15 | S 10 | 10.00 | Fair | CLR | 37.4 | 37.4 | 100% | 31 | 29.49 | 0.0 | ||||||
| 04 | 03:55 | S 8 | 10.00 | Fair | CLR | 37.4 | 37.4 | 100% | 32 | 29.5 | 0.0 | ||||||
| 04 | 03:35 | S 9 | 10.00 | Fair | CLR | 37.4 | 37.4 | 100% | 31 | 29.5 | 0.0 | ||||||
| Date | Time (edt) | Wind (mph) | Vis. (mi.) | Weather | Sky Cond. | Air | Dwpt | Max. | Min. | Relative Humidity | Wind Chill (°F) | Heat Index (°F) | altimeter (in) | sea level (mb) | 1 hr | 3 hr | 6 hr |
| 6 hour | |||||||||||||||||
| Temperature (ºF) | Pressure | Precipitation (in) | |||||||||||||||